createdAt,value
2023-09-17T00:00:47.868Z,8.75
2023-09-17T00:03:50.198Z,8.48
2023-09-17T00:06:52.506Z,8.52
2023-09-17T00:09:54.039Z,7.95
2023-09-17T00:12:56.290Z,8.65
2023-09-17T00:15:57.924Z,7.93
2023-09-17T00:18:59.553Z,8.90
2023-09-17T00:22:02.229Z,8.35
2023-09-17T00:25:04.496Z,8.15
2023-09-17T00:28:06.029Z,8.75
2023-09-17T00:31:07.701Z,8.85
2023-09-17T00:34:09.898Z,7.88
2023-09-17T00:37:13.008Z,7.95
2023-09-17T00:40:15.820Z,7.53
2023-09-17T00:43:17.684Z,7.50
2023-09-17T00:46:20.972Z,8.23
2023-09-17T00:49:23.684Z,9.07
2023-09-17T00:52:25.651Z,7.88
2023-09-17T00:55:30.663Z,8.23
2023-09-17T00:58:34.706Z,7.82
2023-09-17T01:04:41.523Z,7.40
2023-09-17T01:07:43.615Z,8.57
2023-09-17T01:10:47.385Z,8.35
2023-09-17T01:13:59.905Z,8.10
2023-09-17T01:17:07.375Z,8.43
2023-09-17T01:20:25.883Z,7.85
2023-09-17T01:23:39.754Z,7.57
2023-09-17T01:26:45.743Z,7.45
2023-09-17T01:29:50.735Z,7.63
2023-09-17T01:32:52.603Z,7.95
2023-09-17T01:36:00.108Z,7.10
2023-09-17T01:39:05.951Z,7.80
2023-09-17T01:42:07.951Z,7.38
2023-09-17T01:45:11.355Z,7.30
2023-09-17T01:48:14.608Z,6.75
2023-09-17T01:51:17.170Z,7.50
2023-09-17T01:54:19.090Z,7.55
2023-09-17T01:57:20.640Z,7.50
2023-09-17T02:00:22.297Z,6.93
2023-09-17T02:03:24.055Z,7.68
2023-09-17T02:06:25.804Z,7.20
2023-09-17T02:09:27.364Z,6.40
2023-09-17T02:12:29.982Z,6.97
2023-09-17T02:15:31.538Z,7.88
2023-09-17T02:18:33.164Z,6.63
2023-09-17T02:21:34.702Z,7.40
2023-09-17T02:24:37.290Z,7.20
2023-09-17T02:27:40.032Z,7.55
2023-09-17T02:30:41.578Z,7.90
2023-09-17T02:33:43.177Z,7.47
2023-09-17T02:36:44.741Z,7.43
2023-09-17T02:39:46.361Z,7.32
2023-09-17T02:42:48.185Z,7.65
2023-09-17T02:45:50.553Z,7.95
2023-09-17T02:48:54.897Z,7.72
2023-09-17T02:51:56.581Z,7.53
2023-09-17T02:54:58.288Z,7.70
2023-09-17T02:57:59.872Z,7.00
2023-09-17T03:01:05.793Z,8.07
2023-09-17T03:04:08.104Z,8.40
2023-09-17T03:07:09.678Z,7.38
2023-09-17T03:10:12.914Z,7.85
2023-09-17T03:13:17.686Z,7.63
2023-09-17T03:16:20.353Z,8.68
2023-09-17T03:19:22.109Z,7.78
2023-09-17T03:22:23.811Z,8.65
2023-09-17T03:25:25.455Z,7.80
2023-09-17T03:28:28.286Z,8.82
2023-09-17T03:31:30.948Z,7.10
2023-09-17T03:34:34.137Z,7.90
2023-09-17T03:37:36.278Z,7.78
2023-09-17T03:40:38.104Z,7.70
2023-09-17T03:43:40.317Z,7.60
2023-09-17T03:46:42.231Z,7.68
2023-09-17T03:49:46.034Z,7.28
2023-09-17T03:52:50.478Z,8.20
2023-09-17T03:55:54.418Z,8.38
2023-09-17T03:58:56.224Z,8.52
2023-09-17T04:01:59.451Z,8.23
2023-09-17T04:05:01.139Z,8.05
2023-09-17T04:08:03.109Z,7.32
2023-09-17T04:11:08.005Z,8.20
2023-09-17T04:17:11.216Z,8.32
2023-09-17T04:20:15.994Z,8.70
2023-09-17T04:23:18.298Z,7.75
2023-09-17T04:26:20.213Z,8.30
2023-09-17T04:29:22.097Z,8.93
2023-09-17T04:32:23.752Z,8.25
2023-09-17T04:35:25.643Z,7.47
2023-09-17T04:38:29.030Z,7.47
2023-09-17T04:41:30.718Z,7.50
2023-09-17T04:44:32.602Z,7.82
2023-09-17T04:47:35.230Z,7.78
2023-09-17T04:50:37.431Z,7.82
2023-09-17T04:53:39.119Z,7.85
2023-09-17T04:56:40.849Z,7.88
2023-09-17T04:59:42.952Z,7.68
2023-09-17T05:02:44.821Z,7.70
2023-09-17T05:05:50.066Z,7.18
2023-09-17T05:08:52.978Z,7.15
2023-09-17T05:11:55.268Z,7.72
2023-09-17T05:14:57.488Z,6.88
2023-09-17T05:17:59.184Z,7.50
2023-09-17T05:21:00.910Z,6.97
2023-09-17T05:24:02.536Z,7.00
2023-09-17T05:27:04.869Z,8.02
2023-09-17T05:30:07.379Z,7.35
2023-09-17T05:33:09.200Z,7.93
2023-09-17T05:36:11.311Z,6.55
2023-09-17T05:39:14.447Z,8.00
2023-09-17T05:42:16.084Z,6.90
2023-09-17T05:45:18.964Z,6.80
2023-09-17T05:48:20.696Z,7.25
2023-09-17T05:51:22.723Z,6.72
2023-09-17T05:54:26.083Z,7.30
2023-09-17T06:00:30.186Z,6.88
2023-09-17T06:03:31.865Z,6.85
2023-09-17T06:06:33.967Z,6.60
2023-09-17T06:09:35.908Z,6.57
2023-09-17T06:12:37.473Z,5.95
2023-09-17T06:15:40.186Z,6.05
2023-09-17T06:18:41.879Z,5.32
2023-09-17T06:21:44.643Z,5.50
2023-09-17T06:24:46.397Z,5.80
2023-09-17T06:27:48.085Z,6.13
2023-09-17T06:30:49.798Z,6.20
2023-09-17T06:33:52.534Z,5.75
2023-09-17T06:36:54.719Z,5.73
2023-09-17T06:39:56.450Z,5.97
2023-09-17T06:42:58.193Z,5.90
2023-09-17T06:46:00.250Z,5.60
2023-09-17T06:49:01.829Z,5.88
2023-09-17T06:52:03.718Z,6.18
2023-09-17T06:55:05.961Z,5.93
2023-09-17T06:58:07.552Z,5.97
2023-09-17T07:01:09.120Z,6.22
2023-09-17T07:04:13.210Z,6.07
2023-09-17T07:07:15.151Z,5.90
2023-09-17T07:10:16.952Z,6.07
2023-09-17T07:13:18.586Z,5.22
2023-09-17T07:16:20.294Z,5.82
2023-09-17T07:19:22.083Z,5.38
2023-09-17T07:22:23.852Z,4.63
2023-09-17T07:25:25.797Z,4.97
2023-09-17T07:28:30.379Z,4.95
2023-09-17T07:31:32.437Z,5.03
2023-09-17T07:34:34.433Z,4.38
2023-09-17T07:37:49.887Z,5.20
2023-09-17T07:40:52.267Z,4.40
2023-09-17T07:43:54.203Z,5.28
2023-09-17T07:46:56.177Z,5.38
2023-09-17T07:49:57.886Z,5.30
2023-09-17T07:53:00.519Z,4.80
2023-09-17T07:56:02.793Z,5.18
2023-09-17T07:59:04.801Z,4.60
2023-09-17T08:02:06.663Z,4.88
2023-09-17T08:05:08.834Z,4.47
2023-09-17T08:08:10.486Z,5.28
2023-09-17T08:11:12.064Z,4.70
2023-09-17T08:14:14.801Z,4.90
2023-09-17T08:17:17.792Z,5.40
2023-09-17T08:20:19.342Z,5.03
2023-09-17T08:23:21.034Z,4.50
2023-09-17T08:26:23.706Z,5.13
2023-09-17T08:29:25.379Z,4.47
2023-09-17T08:32:27.239Z,4.53
2023-09-17T08:35:28.965Z,4.50
2023-09-17T08:38:31.277Z,4.90
2023-09-17T08:41:33.019Z,4.38
2023-09-17T08:44:37.170Z,4.35
2023-09-17T08:47:40.081Z,4.97
2023-09-17T08:50:43.305Z,4.63
2023-09-17T08:54:23.544Z,4.05
2023-09-17T08:57:26.715Z,4.35
2023-09-17T09:00:35.005Z,4.22
2023-09-17T09:03:38.098Z,3.83
2023-09-17T09:06:40.303Z,4.28
2023-09-17T09:09:43.105Z,4.35
2023-09-17T09:12:46.338Z,4.03
2023-09-17T09:15:48.822Z,4.43
2023-09-17T09:18:50.859Z,4.30
2023-09-17T09:21:52.629Z,4.10
2023-09-17T09:24:54.431Z,4.72
2023-09-17T09:28:01.420Z,4.00
2023-09-17T09:31:03.743Z,4.35
2023-09-17T09:34:05.525Z,3.70
2023-09-17T09:37:07.710Z,3.92
2023-09-17T09:40:09.872Z,4.65
2023-09-17T09:43:32.398Z,4.65
2023-09-17T09:46:34.210Z,3.97
2023-09-17T09:49:42.970Z,3.80
2023-09-17T09:52:44.663Z,4.10
2023-09-17T09:55:47.965Z,4.22
2023-09-17T09:58:49.974Z,4.00
2023-09-17T10:01:52.088Z,3.92
2023-09-17T10:04:53.813Z,4.00
2023-09-17T10:07:56.548Z,3.83
2023-09-17T10:10:58.682Z,4.33
2023-09-17T10:14:05.342Z,3.72
2023-09-17T10:17:08.656Z,3.80
2023-09-17T10:20:11.922Z,3.90
2023-09-17T10:23:16.503Z,3.63
2023-09-17T10:26:23.741Z,3.92
2023-09-17T10:29:27.108Z,3.33
2023-09-17T10:32:30.160Z,4.00
2023-09-17T10:35:33.250Z,3.30
2023-09-17T10:38:37.132Z,3.45
2023-09-17T10:41:38.875Z,3.80
2023-09-17T10:44:43.733Z,4.25
2023-09-17T10:47:48.726Z,3.78
2023-09-17T10:50:51.802Z,3.60
2023-09-17T10:53:53.948Z,3.83
2023-09-17T10:56:57.051Z,4.05
2023-09-17T11:00:01.327Z,3.97
2023-09-17T11:03:05.515Z,3.90
2023-09-17T11:06:17.474Z,4.28
2023-09-17T11:09:20.697Z,3.88
2023-09-17T11:12:25.107Z,4.28
2023-09-17T11:15:27.003Z,3.88
2023-09-17T11:18:28.531Z,4.40
2023-09-17T11:21:30.096Z,3.78
2023-09-17T11:24:33.522Z,3.83
2023-09-17T11:30:57.444Z,4.00
2023-09-17T11:33:59.427Z,4.32
2023-09-17T11:37:01.808Z,4.47
2023-09-17T11:40:06.530Z,4.28
2023-09-17T11:43:08.197Z,3.95
2023-09-17T11:46:12.457Z,4.40
2023-09-17T11:49:14.435Z,4.32
2023-09-17T11:52:16.469Z,3.92
2023-09-17T11:55:23.909Z,4.10
2023-09-17T11:58:28.838Z,4.07
2023-09-17T12:01:36.487Z,3.65
2023-09-17T12:04:39.742Z,3.83
2023-09-17T12:07:54.487Z,4.10
2023-09-17T12:11:01.875Z,3.83
2023-09-17T12:14:07.722Z,3.80
2023-09-17T12:17:09.633Z,3.60
2023-09-17T12:20:22.215Z,4.00
2023-09-17T12:23:42.280Z,4.35
2023-09-17T12:27:06.802Z,4.15
2023-09-17T12:30:09.846Z,4.43
2023-09-17T12:33:11.977Z,4.20
2023-09-17T12:36:14.138Z,4.13
2023-09-17T12:39:17.303Z,4.10
2023-09-17T12:42:19.649Z,3.60
2023-09-17T12:45:21.300Z,4.03
2023-09-17T12:48:24.132Z,3.60
2023-09-17T12:51:25.973Z,3.50
2023-09-17T12:54:27.846Z,3.70
2023-09-17T12:57:29.541Z,3.88
2023-09-17T13:00:31.254Z,3.63
2023-09-17T13:03:32.919Z,3.63
2023-09-17T13:06:36.845Z,3.90
2023-09-17T13:09:38.422Z,3.70
2023-09-17T13:12:45.692Z,4.10
2023-09-17T13:15:47.444Z,3.70
2023-09-17T13:18:51.034Z,3.60
2023-09-17T13:21:52.792Z,3.72
2023-09-17T13:24:55.142Z,3.90
2023-09-17T13:27:56.854Z,3.38
2023-09-17T13:31:02.008Z,3.60
2023-09-17T13:34:03.616Z,3.78
2023-09-17T13:37:05.880Z,4.05
2023-09-17T13:40:08.631Z,4.05
2023-09-17T13:43:10.562Z,3.70
2023-09-17T13:46:17.077Z,3.80
2023-09-17T13:49:18.651Z,3.80
2023-09-17T13:52:20.244Z,3.47
2023-09-17T13:55:22.036Z,3.70
2023-09-17T13:58:23.631Z,3.50
2023-09-17T14:01:25.236Z,4.00
2023-09-17T14:04:26.962Z,3.75
2023-09-17T14:07:28.895Z,4.13
2023-09-17T14:10:30.886Z,3.83
2023-09-17T14:16:36.482Z,3.92
2023-09-17T14:19:38.229Z,4.00
2023-09-17T14:22:40.207Z,3.92
2023-09-17T14:25:41.758Z,4.70
2023-09-17T14:31:44.961Z,5.10
2023-09-17T14:34:46.813Z,4.35
2023-09-17T14:37:49.300Z,4.10
2023-09-17T14:40:50.894Z,3.90
2023-09-17T14:43:52.477Z,4.20
2023-09-17T14:50:01.865Z,3.92
2023-09-17T14:53:03.537Z,4.35
2023-09-17T14:59:06.855Z,3.75
2023-09-17T15:08:12.460Z,3.80
2023-09-17T15:14:15.887Z,4.00
2023-09-17T15:17:17.648Z,3.55
2023-09-17T15:20:21.590Z,3.92
2023-09-17T15:23:23.426Z,3.58
2023-09-17T15:29:26.847Z,3.83
2023-09-17T15:32:28.617Z,3.90
2023-09-17T15:38:32.410Z,4.07
2023-09-17T15:44:35.464Z,4.00
2023-09-17T15:47:41.801Z,3.67
2023-09-17T15:50:43.375Z,3.75
2023-09-17T15:53:44.985Z,4.43
2023-09-17T15:56:46.649Z,3.50
2023-09-17T15:59:48.435Z,3.80
2023-09-17T16:02:50.170Z,4.10
2023-09-17T16:05:53.114Z,3.72
2023-09-17T16:08:54.987Z,3.88
2023-09-17T16:11:56.654Z,4.25
2023-09-17T16:14:58.217Z,4.32
2023-09-17T16:18:00.207Z,4.22
2023-09-17T16:21:01.904Z,4.32
2023-09-17T16:24:03.719Z,3.90
2023-09-17T16:27:05.638Z,4.05
2023-09-17T16:30:09.445Z,3.85
2023-09-17T16:33:11.134Z,4.38
2023-09-17T16:36:12.756Z,4.00
2023-09-17T16:39:14.323Z,3.75
2023-09-17T16:42:15.848Z,3.88
2023-09-17T16:45:19.027Z,4.30
2023-09-17T16:48:20.696Z,4.68
2023-09-17T16:51:22.306Z,3.90
2023-09-17T16:54:24.983Z,4.20
2023-09-17T16:57:31.034Z,4.57
2023-09-17T17:00:33.051Z,4.18
2023-09-17T17:03:34.831Z,4.00
2023-09-17T17:06:36.587Z,3.95
2023-09-17T17:09:38.253Z,4.68
2023-09-17T17:12:40.041Z,3.70
2023-09-17T17:15:41.820Z,4.22
2023-09-17T17:18:43.436Z,4.10
2023-09-17T17:21:44.887Z,4.47
2023-09-17T17:24:46.689Z,4.43
2023-09-17T17:27:49.600Z,4.90
2023-09-17T17:30:51.242Z,5.18
2023-09-17T17:33:54.286Z,4.85
2023-09-17T17:36:58.726Z,4.63
2023-09-17T17:40:00.843Z,6.50
2023-09-17T17:43:03.389Z,5.80
2023-09-17T17:46:05.060Z,4.55
2023-09-17T17:49:06.746Z,4.63
2023-09-17T17:52:09.682Z,4.10
2023-09-17T17:55:11.355Z,4.47
2023-09-17T17:58:12.904Z,4.85
2023-09-17T18:01:15.263Z,4.78
2023-09-17T18:04:16.963Z,4.35
2023-09-17T18:07:18.736Z,4.60
2023-09-17T18:10:22.077Z,4.97
2023-09-17T18:13:23.660Z,5.22
2023-09-17T18:16:25.957Z,4.78
2023-09-17T18:19:27.724Z,5.25
2023-09-17T18:22:30.360Z,5.05
2023-09-17T18:25:32.978Z,4.90
2023-09-17T18:28:34.576Z,4.60
2023-09-17T18:31:36.175Z,4.28
2023-09-17T18:34:37.859Z,5.90
2023-09-17T18:37:39.476Z,4.90
2023-09-17T18:40:41.153Z,5.20
2023-09-17T18:43:42.700Z,4.55
2023-09-17T18:46:44.517Z,5.07
2023-09-17T18:49:46.183Z,5.07
2023-09-17T18:52:47.826Z,4.82
2023-09-17T18:55:50.537Z,4.40
2023-09-17T18:58:52.243Z,4.75
2023-09-17T19:01:53.878Z,4.88
2023-09-17T19:04:55.753Z,4.68
2023-09-17T19:07:57.507Z,5.18
2023-09-17T19:10:59.079Z,4.30
2023-09-17T19:14:01.487Z,4.50
2023-09-17T19:17:05.820Z,4.35
2023-09-17T19:20:08.628Z,4.65
2023-09-17T19:23:10.375Z,4.55
2023-09-17T19:26:13.885Z,5.10
2023-09-17T19:29:16.147Z,5.22
2023-09-17T19:32:18.156Z,4.45
2023-09-17T19:35:19.802Z,4.70
2023-09-17T19:38:21.656Z,5.20
2023-09-17T19:41:23.239Z,4.93
2023-09-17T19:44:24.879Z,4.90
2023-09-17T19:47:26.562Z,4.32
2023-09-17T19:50:28.267Z,4.80
2023-09-17T19:53:30.463Z,4.85
2023-09-17T19:56:32.415Z,4.68
2023-09-17T19:59:34.176Z,3.95
2023-09-17T20:02:37.879Z,4.70
2023-09-17T20:05:39.561Z,4.15
2023-09-17T20:08:41.130Z,4.57
2023-09-17T20:11:42.737Z,4.00
2023-09-17T20:14:44.557Z,4.32
2023-09-17T20:17:46.145Z,4.43
2023-09-17T20:20:48.333Z,4.95
2023-09-17T20:23:49.947Z,4.40
2023-09-17T20:26:51.501Z,3.95
2023-09-17T20:29:53.344Z,4.05
2023-09-17T20:32:56.851Z,4.18
2023-09-17T20:35:58.484Z,4.10
2023-09-17T20:39:00.143Z,3.80
2023-09-17T20:42:02.238Z,4.40
2023-09-17T20:45:04.165Z,4.15
2023-09-17T20:48:07.312Z,4.20
2023-09-17T20:51:09.006Z,4.90
2023-09-17T20:54:10.647Z,4.25
2023-09-17T20:57:12.345Z,4.15
2023-09-17T21:00:15.085Z,4.00
2023-09-17T21:03:16.768Z,4.45
2023-09-17T21:06:18.442Z,4.10
2023-09-17T21:09:25.618Z,4.35
2023-09-17T21:12:29.316Z,3.95
2023-09-17T21:15:30.924Z,3.45
2023-09-17T21:18:32.689Z,3.60
2023-09-17T21:21:34.287Z,4.13
2023-09-17T21:24:35.917Z,4.30
2023-09-17T21:27:38.671Z,3.88
2023-09-17T21:30:42.428Z,4.20
2023-09-17T21:33:43.965Z,3.95
2023-09-17T21:36:45.623Z,4.13
2023-09-17T21:39:47.144Z,3.95
2023-09-17T21:42:48.702Z,4.47
2023-09-17T21:45:50.332Z,3.95
2023-09-17T21:48:52.384Z,3.92
2023-09-17T21:51:54.126Z,3.80
2023-09-17T21:54:55.754Z,3.75
2023-09-17T21:57:57.370Z,3.90
2023-09-17T22:00:58.979Z,3.67
2023-09-17T22:04:00.613Z,3.15
2023-09-17T22:07:03.573Z,3.90
2023-09-17T22:10:05.415Z,3.60
2023-09-17T22:13:07.923Z,3.42
2023-09-17T22:16:09.669Z,4.22
2023-09-17T22:19:11.232Z,3.58
2023-09-17T22:22:12.761Z,3.05
2023-09-17T22:25:14.627Z,3.50
2023-09-17T22:28:16.605Z,3.75
2023-09-17T22:31:18.337Z,3.70
2023-09-17T22:34:19.895Z,3.65
2023-09-17T22:37:21.500Z,3.85
2023-09-17T22:40:23.736Z,3.03
2023-09-17T22:43:25.290Z,3.53
2023-09-17T22:46:29.161Z,3.72
2023-09-17T22:52:32.566Z,3.60
2023-09-17T22:55:34.146Z,3.35
2023-09-17T22:58:35.719Z,4.05
2023-09-17T23:01:39.899Z,3.70
2023-09-17T23:04:41.745Z,4.00
2023-09-17T23:07:43.712Z,3.58
2023-09-17T23:10:45.243Z,3.30
2023-09-17T23:13:48.046Z,3.95
2023-09-17T23:16:49.715Z,3.63
2023-09-17T23:19:51.283Z,3.72
2023-09-17T23:22:52.873Z,3.90
2023-09-17T23:25:56.089Z,4.10
2023-09-17T23:28:58.989Z,3.90
2023-09-17T23:32:02.139Z,3.90
2023-09-17T23:35:06.057Z,3.80
2023-09-17T23:38:07.750Z,4.35
2023-09-17T23:41:09.565Z,3.83
2023-09-17T23:44:11.308Z,4.00
2023-09-17T23:47:13.146Z,4.38
2023-09-17T23:50:17.706Z,4.28
2023-09-17T23:53:19.303Z,3.45
2023-09-17T23:56:20.979Z,3.85
2023-09-17T23:59:22.576Z,3.72
